createdAt,value
2018-02-16T00:01:27.476Z,68.23
2018-02-16T00:03:55.108Z,45.43
2018-02-16T00:06:22.662Z,53.27
2018-02-16T00:08:50.254Z,91.23
2018-02-16T00:11:17.856Z,57.90
2018-02-16T00:13:45.439Z,64.93
2018-02-16T00:16:13.265Z,56.13
2018-02-16T00:18:40.952Z,43.97
2018-02-16T00:21:09.239Z,42.60
2018-02-16T00:23:36.872Z,41.10
2018-02-16T00:26:04.512Z,43.17
2018-02-16T00:28:32.079Z,40.63
2018-02-16T00:30:59.670Z,44.23
2018-02-16T00:33:27.310Z,43.63
2018-02-16T00:35:54.906Z,37.17
2018-02-16T00:38:22.505Z,36.50
2018-02-16T00:40:50.114Z,36.00
2018-02-16T00:43:17.945Z,40.60
2018-02-16T00:45:45.570Z,34.77
2018-02-16T00:48:13.171Z,39.60
2018-02-16T00:50:41.011Z,43.23
2018-02-16T00:53:09.038Z,41.10
2018-02-16T00:55:36.659Z,45.80
2018-02-16T00:58:04.242Z,39.10
2018-02-16T01:00:31.816Z,44.07
2018-02-16T01:02:59.388Z,35.30
2018-02-16T01:05:28.410Z,45.83
2018-02-16T01:07:56.021Z,49.33
2018-02-16T01:10:23.587Z,41.03
2018-02-16T01:12:51.188Z,47.30
2018-02-16T01:15:18.886Z,40.57
2018-02-16T01:17:46.749Z,39.73
2018-02-16T01:20:14.504Z,42.33
2018-02-16T01:22:42.092Z,42.90
2018-02-16T01:25:09.936Z,42.53
2018-02-16T01:27:37.616Z,46.00
2018-02-16T01:30:05.221Z,39.23
2018-02-16T01:32:32.765Z,39.17
2018-02-16T01:35:00.393Z,42.83
2018-02-16T01:37:28.005Z,31.63
2018-02-16T01:39:55.589Z,37.73
2018-02-16T01:42:23.195Z,30.60
2018-02-16T01:44:52.000Z,36.70
2018-02-16T01:47:19.563Z,34.50
2018-02-16T01:52:45.099Z,37.03
2018-02-16T01:55:13.059Z,33.63
2018-02-16T01:57:40.754Z,41.03
2018-02-16T02:00:08.413Z,32.77
2018-02-16T02:02:36.199Z,40.33
2018-02-16T02:05:03.962Z,44.97
2018-02-16T02:07:31.552Z,40.67
2018-02-16T02:09:59.183Z,36.43
2018-02-16T02:12:26.758Z,38.53
2018-02-16T02:14:54.336Z,35.37
2018-02-16T02:17:21.912Z,37.30
2018-02-16T02:19:49.546Z,46.00
2018-02-16T02:22:17.336Z,46.80
2018-02-16T02:24:44.910Z,48.10
2018-02-16T02:27:13.672Z,43.20
2018-02-16T02:29:41.296Z,38.53
2018-02-16T02:32:09.172Z,47.13
2018-02-16T02:34:36.766Z,43.13
2018-02-16T02:37:04.701Z,58.47
2018-02-16T02:39:34.320Z,51.70
2018-02-16T02:42:01.919Z,44.80
2018-02-16T02:44:29.980Z,52.20
2018-02-16T02:46:57.930Z,30.77
2018-02-16T02:49:25.511Z,44.13
2018-02-16T02:51:53.311Z,40.67
2018-02-16T02:54:21.463Z,42.00
2018-02-16T02:56:49.277Z,58.10
2018-02-16T02:59:17.342Z,55.57
2018-02-16T03:01:44.951Z,47.83
2018-02-16T03:04:12.593Z,36.67
2018-02-16T03:06:40.954Z,50.07
2018-02-16T03:09:08.526Z,40.87
2018-02-16T03:11:36.107Z,39.87
2018-02-16T03:14:03.743Z,43.07
2018-02-16T03:16:31.355Z,41.53
2018-02-16T03:18:58.995Z,37.03
2018-02-16T03:21:27.887Z,41.27
2018-02-16T03:23:55.524Z,42.03
2018-02-16T03:26:23.165Z,39.03
2018-02-16T03:28:50.740Z,39.13
2018-02-16T03:31:20.156Z,37.20
2018-02-16T03:33:54.375Z,36.37
2018-02-16T03:36:24.649Z,40.37
2018-02-16T03:38:52.257Z,41.87
2018-02-16T03:41:20.098Z,41.40
2018-02-16T03:43:47.656Z,50.60
2018-02-16T03:46:15.271Z,43.50
2018-02-16T03:48:42.845Z,50.70
2018-02-16T03:51:10.728Z,44.50
2018-02-16T03:53:38.542Z,39.77
2018-02-16T03:56:06.133Z,47.53
2018-02-16T03:58:36.022Z,38.97
2018-02-16T04:01:03.606Z,40.40
2018-02-16T04:03:31.516Z,36.20
2018-02-16T04:05:59.079Z,42.50
2018-02-16T04:08:26.693Z,37.97
2018-02-16T04:10:54.270Z,42.20
2018-02-16T04:13:21.835Z,44.70
2018-02-16T04:15:49.419Z,40.83
2018-02-16T04:18:16.967Z,38.83
2018-02-16T04:20:44.538Z,41.23
2018-02-16T04:23:12.830Z,42.07
2018-02-16T04:25:40.387Z,38.23
2018-02-16T04:28:08.019Z,40.73
2018-02-16T04:30:35.592Z,52.53
2018-02-16T04:33:03.187Z,46.77
2018-02-16T04:35:30.783Z,46.47
2018-02-16T04:37:59.167Z,38.53
2018-02-16T04:40:26.815Z,44.80
2018-02-16T04:42:54.482Z,41.17
2018-02-16T04:45:22.068Z,32.47
2018-02-16T04:47:49.612Z,40.80
2018-02-16T04:50:17.209Z,38.47
2018-02-16T04:52:44.781Z,41.87
2018-02-16T04:55:13.225Z,45.00
2018-02-16T04:57:40.884Z,40.83
2018-02-16T05:00:09.377Z,48.20
2018-02-16T05:02:36.925Z,41.37
2018-02-16T05:05:04.542Z,42.63
2018-02-16T05:07:32.674Z,39.37
2018-02-16T05:10:00.282Z,36.30
2018-02-16T05:12:27.857Z,38.10
2018-02-16T05:14:55.413Z,39.33
2018-02-16T05:17:23.185Z,51.40
2018-02-16T05:19:50.956Z,39.47
2018-02-16T05:22:18.869Z,42.00
2018-02-16T05:24:46.409Z,43.53
2018-02-16T05:27:14.801Z,43.57
2018-02-16T05:29:43.380Z,45.97
2018-02-16T05:32:11.008Z,50.37
2018-02-16T05:34:38.580Z,50.53
2018-02-16T05:37:06.645Z,47.87
2018-02-16T05:39:34.565Z,49.33
2018-02-16T05:42:02.133Z,57.37
2018-02-16T05:44:29.714Z,45.20
2018-02-16T05:46:57.289Z,48.33
2018-02-16T05:49:25.133Z,36.03
2018-02-16T05:51:52.702Z,40.60
2018-02-16T05:54:20.296Z,42.37
2018-02-16T05:56:47.860Z,50.60
2018-02-16T05:59:15.413Z,57.43
2018-02-16T06:01:43.056Z,50.50
2018-02-16T06:04:10.785Z,44.63
2018-02-16T06:06:38.373Z,48.13
2018-02-16T06:09:06.219Z,45.87
2018-02-16T06:11:34.252Z,53.00
2018-02-16T06:14:01.805Z,45.33
2018-02-16T06:16:29.365Z,51.57
2018-02-16T06:18:56.940Z,50.93
2018-02-16T06:21:24.639Z,48.53
2018-02-16T06:23:52.320Z,42.23
2018-02-16T06:26:19.822Z,46.37
2018-02-16T06:28:47.413Z,36.87
2018-02-16T06:31:15.943Z,52.03
2018-02-16T06:33:43.480Z,43.57
2018-02-16T06:36:11.273Z,41.43
2018-02-16T06:38:38.862Z,43.87
2018-02-16T06:41:06.763Z,43.30
2018-02-16T06:43:34.579Z,42.13
2018-02-16T06:46:02.162Z,44.70
2018-02-16T06:48:29.749Z,48.97
2018-02-16T06:50:57.307Z,47.23
2018-02-16T06:53:24.877Z,45.77
2018-02-16T06:55:52.437Z,55.83
2018-02-16T06:58:20.200Z,48.90
2018-02-16T07:00:47.878Z,47.27
2018-02-16T07:03:19.964Z,62.57
2018-02-16T07:05:49.495Z,56.83
2018-02-16T07:08:17.075Z,48.93
2018-02-16T07:10:46.236Z,57.63
2018-02-16T07:13:13.817Z,51.77
2018-02-16T07:15:54.028Z,44.50
2018-02-16T07:18:21.660Z,56.63
2018-02-16T07:20:52.017Z,67.10
2018-02-16T07:23:19.728Z,47.70
2018-02-16T07:25:47.289Z,55.33
2018-02-16T07:28:14.927Z,58.37
2018-02-16T07:30:42.535Z,60.03
2018-02-16T07:33:10.368Z,68.37
2018-02-16T07:35:38.464Z,77.97
2018-02-16T07:38:06.048Z,142.43
2018-02-16T07:40:33.618Z,79.70
2018-02-16T07:43:01.220Z,90.77
2018-02-16T07:45:29.793Z,120.00
2018-02-16T07:48:00.056Z,80.47
2018-02-16T07:50:29.656Z,70.33
2018-02-16T07:52:59.949Z,83.00
2018-02-16T07:55:28.912Z,66.50
2018-02-16T07:57:56.711Z,79.43
2018-02-16T08:00:24.426Z,81.33
2018-02-16T08:02:52.156Z,77.10
2018-02-16T08:05:19.735Z,88.33
2018-02-16T08:07:47.311Z,72.63
2018-02-16T08:10:15.013Z,69.87
2018-02-16T08:12:42.602Z,57.73
2018-02-16T08:15:11.459Z,68.17
2018-02-16T08:17:42.093Z,69.47
2018-02-16T08:20:09.803Z,66.60
2018-02-16T08:22:37.365Z,74.20
2018-02-16T08:25:09.290Z,79.13
2018-02-16T08:27:36.997Z,66.17
2018-02-16T08:30:04.567Z,66.57
2018-02-16T08:32:32.207Z,88.23
2018-02-16T08:35:00.125Z,76.50
2018-02-16T08:37:28.255Z,67.33
2018-02-16T08:39:55.848Z,66.17
2018-02-16T08:42:24.161Z,62.33
2018-02-16T08:44:51.750Z,71.97
2018-02-16T08:47:19.535Z,99.10
2018-02-16T08:49:47.189Z,103.27
2018-02-16T08:52:14.761Z,82.27
2018-02-16T08:54:42.413Z,56.90
2018-02-16T08:57:11.907Z,50.40
2018-02-16T08:59:39.577Z,46.50
2018-02-16T09:02:07.238Z,59.07
2018-02-16T09:04:35.242Z,30.70
2018-02-16T09:07:02.934Z,19.10
2018-02-16T09:09:32.144Z,28.63
2018-02-16T09:11:59.847Z,22.37
2018-02-16T09:14:27.751Z,28.73
2018-02-16T09:16:56.621Z,19.43
2018-02-16T09:19:25.122Z,19.93
2018-02-16T09:21:53.628Z,17.13
2018-02-16T09:24:21.624Z,18.57
2018-02-16T09:26:49.383Z,22.03
2018-02-16T09:29:18.093Z,18.43
2018-02-16T09:31:46.058Z,25.57
2018-02-16T09:34:13.868Z,22.63
2018-02-16T09:36:42.120Z,25.70
2018-02-16T09:39:11.550Z,30.17
2018-02-16T09:41:39.335Z,36.03
2018-02-16T09:44:06.904Z,28.10
2018-02-16T09:46:34.522Z,35.93
2018-02-16T09:49:02.178Z,35.27
2018-02-16T09:51:30.465Z,39.10
2018-02-16T09:53:58.057Z,38.53
2018-02-16T09:56:25.641Z,38.17
2018-02-16T09:58:53.226Z,33.17
2018-02-16T10:01:22.143Z,38.97
2018-02-16T10:03:49.789Z,34.57
2018-02-16T10:06:17.404Z,47.20
2018-02-16T10:08:45.310Z,40.13
2018-02-16T10:11:12.933Z,37.13
2018-02-16T10:13:40.578Z,31.13
2018-02-16T10:16:08.314Z,39.00
2018-02-16T10:18:36.700Z,38.70
2018-02-16T10:21:04.345Z,27.30
2018-02-16T10:23:31.942Z,23.97
2018-02-16T10:25:59.582Z,22.33
2018-02-16T10:28:27.545Z,19.20
2018-02-16T10:30:55.980Z,13.00
2018-02-16T10:33:23.534Z,19.20
2018-02-16T10:35:51.133Z,17.90
2018-02-16T10:38:18.765Z,18.40
2018-02-16T10:40:48.119Z,20.10
2018-02-16T10:43:15.912Z,21.07
2018-02-16T10:45:44.155Z,17.77
2018-02-16T10:48:11.814Z,17.73
2018-02-16T10:50:41.656Z,24.97
2018-02-16T10:53:09.666Z,18.00
2018-02-16T10:55:39.205Z,18.77
2018-02-16T10:58:06.839Z,22.93
2018-02-16T11:00:41.946Z,12.90
2018-02-16T11:03:15.021Z,16.70
2018-02-16T11:05:57.920Z,13.70
2018-02-16T11:08:39.321Z,14.67
2018-02-16T11:11:09.038Z,13.30
2018-02-16T11:13:37.402Z,12.73
2018-02-16T11:16:06.060Z,17.07
2018-02-16T11:18:37.971Z,15.37
2018-02-16T11:31:47.816Z,14.83
2018-02-16T11:34:17.253Z,21.50
2018-02-16T11:36:45.728Z,29.10
2018-02-16T11:39:13.993Z,15.30
2018-02-16T11:41:45.659Z,26.97
2018-02-16T11:44:13.554Z,16.23
2018-02-16T11:46:41.317Z,25.27
2018-02-16T11:49:09.275Z,35.77
2018-02-16T11:51:39.044Z,16.50
2018-02-16T11:54:07.550Z,25.00
2018-02-16T11:56:37.263Z,17.23
2018-02-16T11:59:06.672Z,20.30
2018-02-16T12:01:35.495Z,17.77
2018-02-16T12:04:03.541Z,15.33
2018-02-16T12:06:31.162Z,15.20
2018-02-16T12:08:58.787Z,14.03
2018-02-16T12:11:26.573Z,15.27
2018-02-16T12:13:54.219Z,22.17
2018-02-16T12:16:23.390Z,26.07
2018-02-16T12:18:50.978Z,12.67
2018-02-16T12:21:18.575Z,11.77
2018-02-16T12:23:46.169Z,9.53
2018-02-16T12:26:13.758Z,10.40
2018-02-16T12:28:41.372Z,8.70
2018-02-16T12:31:09.583Z,10.37
2018-02-16T12:33:37.190Z,8.63
2018-02-16T12:36:05.037Z,12.00
2018-02-16T12:38:32.582Z,10.60
2018-02-16T12:41:03.893Z,12.23
2018-02-16T12:43:32.565Z,12.60
2018-02-16T12:46:00.185Z,10.43
2018-02-16T12:48:27.788Z,10.23
2018-02-16T12:50:55.709Z,7.63
2018-02-16T12:53:23.882Z,9.20
2018-02-16T12:55:51.522Z,9.60
2018-02-16T12:58:19.096Z,15.90
2018-02-16T13:00:47.104Z,11.77
2018-02-16T13:03:17.313Z,11.70
2018-02-16T13:05:45.010Z,10.87
2018-02-16T13:08:12.676Z,11.97
2018-02-16T13:10:40.278Z,16.43
2018-02-16T13:13:08.523Z,11.03
2018-02-16T13:15:36.534Z,12.07
2018-02-16T13:18:04.448Z,12.50
2018-02-16T13:20:32.342Z,17.17
2018-02-16T13:22:59.970Z,10.80
2018-02-16T13:25:27.539Z,11.67
2018-02-16T13:27:55.410Z,14.67
2018-02-16T13:30:23.300Z,12.77
2018-02-16T13:32:50.872Z,16.53
2018-02-16T13:35:18.525Z,14.33
2018-02-16T13:37:46.141Z,11.80
2018-02-16T13:40:13.825Z,14.43
2018-02-16T13:42:41.480Z,10.17
2018-02-16T13:45:09.209Z,12.10
2018-02-16T13:47:37.068Z,11.00
2018-02-16T13:50:04.724Z,14.43
2018-02-16T13:52:32.323Z,13.47
2018-02-16T13:55:00.426Z,10.87
2018-02-16T13:57:29.033Z,14.80
2018-02-16T13:59:56.655Z,13.10
2018-02-16T14:02:24.903Z,11.77
2018-02-16T14:04:52.498Z,14.50
2018-02-16T14:07:20.187Z,12.40
2018-02-16T14:09:47.827Z,13.50
2018-02-16T14:12:15.852Z,14.07
2018-02-16T14:14:43.491Z,16.90
2018-02-16T14:17:12.339Z,32.83
2018-02-16T14:19:39.998Z,103.20
2018-02-16T14:22:07.664Z,42.83
2018-02-16T14:24:35.271Z,20.77
2018-02-16T14:27:03.642Z,17.40
2018-02-16T14:29:31.398Z,19.50
2018-02-16T14:31:59.012Z,19.10
2018-02-16T14:34:26.602Z,20.77
2018-02-16T14:36:54.196Z,17.93
2018-02-16T14:39:21.832Z,19.30
2018-02-16T14:41:49.530Z,27.40
2018-02-16T14:44:17.177Z,21.73
2018-02-16T14:46:44.809Z,20.57
2018-02-16T14:49:13.072Z,21.43
2018-02-16T14:51:40.649Z,23.37
2018-02-16T14:54:08.387Z,26.87
2018-02-16T14:56:36.117Z,24.03
2018-02-16T14:59:03.734Z,27.20
2018-02-16T15:01:31.724Z,24.00
2018-02-16T15:03:59.353Z,24.60
2018-02-16T15:06:27.403Z,25.63
2018-02-16T15:08:55.015Z,24.23
2018-02-16T15:11:24.412Z,31.63
2018-02-16T15:13:52.073Z,30.77
2018-02-16T15:16:19.661Z,30.50
2018-02-16T15:18:47.242Z,34.10
2018-02-16T15:21:16.891Z,31.93
2018-02-16T15:23:45.423Z,40.83
2018-02-16T15:26:13.060Z,31.83
2018-02-16T15:28:40.674Z,28.40
2018-02-16T15:31:17.120Z,27.47
2018-02-16T15:33:45.108Z,33.07
2018-02-16T15:36:12.708Z,26.53
2018-02-16T15:38:40.341Z,29.87
2018-02-16T15:41:09.747Z,27.40
2018-02-16T15:43:39.741Z,29.27
2018-02-16T15:46:07.391Z,29.73
2018-02-16T15:48:36.818Z,35.53
2018-02-16T15:51:06.578Z,31.53
2018-02-16T15:53:34.193Z,37.07
2018-02-16T15:56:02.083Z,33.00
2018-02-16T15:58:29.689Z,35.37
2018-02-16T16:00:59.300Z,33.00
2018-02-16T16:03:28.461Z,32.37
2018-02-16T16:05:56.467Z,37.57
2018-02-16T16:08:24.069Z,31.40
2018-02-16T16:10:51.997Z,33.07
2018-02-16T16:13:19.903Z,33.73
2018-02-16T16:15:47.610Z,39.43
2018-02-16T16:18:15.390Z,32.47
2018-02-16T16:20:43.243Z,37.73
2018-02-16T16:23:11.545Z,42.40
2018-02-16T16:25:39.481Z,37.47
2018-02-16T16:28:07.142Z,33.10
2018-02-16T16:30:34.777Z,31.73
2018-02-16T16:33:02.772Z,42.30
2018-02-16T16:35:31.067Z,36.40
2018-02-16T16:38:02.364Z,42.20
2018-02-16T16:40:36.218Z,49.80
2018-02-16T16:43:09.748Z,42.47
2018-02-16T16:45:37.767Z,34.40
2018-02-16T16:48:05.676Z,36.90
2018-02-16T16:50:33.708Z,42.23
2018-02-16T16:53:01.739Z,39.70
2018-02-16T16:55:29.723Z,35.60
2018-02-16T16:57:57.319Z,32.30
2018-02-16T17:00:24.987Z,30.33
2018-02-16T17:02:52.628Z,28.10
2018-02-16T17:05:21.220Z,32.60
2018-02-16T17:07:49.294Z,33.53
2018-02-16T17:10:22.096Z,29.57
2018-02-16T17:12:55.055Z,31.40
2018-02-16T17:15:28.467Z,27.23
2018-02-16T17:18:03.055Z,34.20
2018-02-16T17:20:38.573Z,38.67
2018-02-16T17:23:12.679Z,34.00
2018-02-16T17:25:45.839Z,39.07
2018-02-16T17:28:18.084Z,32.93
2018-02-16T17:30:46.150Z,36.20
2018-02-16T17:33:14.106Z,32.03
2018-02-16T17:35:42.105Z,34.00
2018-02-16T17:38:17.194Z,33.70
2018-02-16T17:40:49.742Z,35.13
2018-02-16T17:43:18.354Z,34.60
2018-02-16T17:45:46.021Z,28.50
2018-02-16T17:48:18.666Z,26.90
2018-02-16T17:50:46.248Z,25.90
2018-02-16T17:53:14.250Z,25.90
2018-02-16T17:55:42.111Z,28.83
2018-02-16T17:58:09.751Z,25.90
2018-02-16T18:00:37.365Z,21.80
2018-02-16T18:03:05.903Z,33.43
2018-02-16T18:05:33.735Z,23.23
2018-02-16T18:08:01.485Z,62.30
2018-02-16T18:10:29.325Z,29.00
2018-02-16T18:12:56.993Z,24.10
2018-02-16T18:15:24.662Z,27.27
2018-02-16T18:17:52.331Z,36.93
2018-02-16T18:20:20.204Z,49.73
2018-02-16T18:22:47.832Z,38.77
2018-02-16T18:25:15.416Z,35.50
2018-02-16T18:27:43.067Z,30.03
2018-02-16T18:30:11.379Z,37.30
2018-02-16T18:32:39.440Z,32.33
2018-02-16T18:35:07.728Z,35.87
2018-02-16T18:37:35.365Z,26.97
2018-02-16T18:40:02.975Z,25.40
2018-02-16T18:42:30.609Z,30.27
2018-02-16T18:44:58.257Z,28.60
2018-02-16T18:47:26.133Z,31.47
2018-02-16T18:49:53.799Z,28.20
2018-02-16T18:52:21.414Z,50.00
2018-02-16T18:54:49.109Z,31.87
2018-02-16T18:57:17.295Z,40.60
2018-02-16T18:59:44.965Z,27.30
2018-02-16T19:05:01.605Z,40.07
2018-02-16T19:10:10.146Z,37.67
2018-02-16T19:12:42.059Z,40.77
2018-02-16T19:15:15.355Z,41.83
2018-02-16T19:17:47.247Z,32.60
2018-02-16T19:20:16.324Z,28.77
2018-02-16T19:22:49.334Z,23.77
2018-02-16T19:25:22.964Z,31.13
2018-02-16T19:27:56.685Z,35.50
2018-02-16T19:30:32.035Z,25.70
2018-02-16T19:33:04.915Z,28.03
2018-02-16T19:35:38.375Z,28.33
2018-02-16T19:38:06.269Z,35.60
2018-02-16T19:40:41.266Z,41.53
2018-02-16T19:43:13.021Z,45.90
2018-02-16T19:45:47.073Z,38.60
2018-02-16T19:48:22.057Z,26.80
2018-02-16T19:50:49.720Z,21.93
2018-02-16T19:53:23.699Z,22.13
2018-02-16T19:55:57.170Z,29.40
2018-02-16T19:58:24.969Z,33.87
2018-02-16T20:00:54.508Z,38.43
2018-02-16T20:03:22.502Z,36.20
2018-02-16T20:05:54.053Z,44.73
2018-02-16T20:08:29.301Z,24.30
2018-02-16T20:11:01.641Z,26.03
2018-02-16T20:13:35.485Z,22.20
2018-02-16T20:16:08.289Z,23.63
2018-02-16T20:21:14.552Z,25.17
2018-02-16T20:23:46.943Z,21.60
2018-02-16T20:26:19.951Z,26.07
2018-02-16T20:28:47.564Z,19.90
2018-02-16T20:31:15.328Z,22.77
2018-02-16T20:33:46.119Z,22.70
2018-02-16T20:36:18.309Z,21.73
2018-02-16T20:38:52.668Z,35.90
2018-02-16T20:41:28.711Z,22.37
2018-02-16T20:43:56.696Z,21.07
2018-02-16T20:46:27.597Z,21.60
2018-02-16T20:48:55.215Z,17.10
2018-02-16T20:51:23.630Z,21.13
2018-02-16T20:53:51.498Z,20.47
2018-02-16T20:56:24.053Z,17.70
2018-02-16T20:58:51.985Z,21.60
2018-02-16T21:01:19.616Z,18.03
2018-02-16T21:03:47.716Z,17.43
2018-02-16T21:06:15.570Z,19.50
2018-02-16T21:08:48.306Z,39.47
2018-02-16T21:11:16.993Z,36.20
2018-02-16T21:13:47.689Z,27.40
2018-02-16T21:16:20.694Z,29.30
2018-02-16T21:18:48.296Z,31.70
2018-02-16T21:21:23.494Z,29.83
2018-02-16T21:23:52.896Z,20.57
2018-02-16T21:26:25.216Z,21.57
2018-02-16T21:28:53.426Z,21.90
2018-02-16T21:31:22.173Z,20.10
2018-02-16T21:33:50.020Z,18.67
2018-02-16T21:36:19.004Z,17.33
2018-02-16T21:38:46.701Z,18.43
2018-02-16T21:41:14.765Z,24.00
2018-02-16T21:43:42.390Z,27.83
2018-02-16T21:46:10.262Z,25.17
2018-02-16T21:48:38.055Z,21.27
2018-02-16T21:51:06.287Z,23.03
2018-02-16T21:53:34.695Z,20.27
2018-02-16T21:56:02.413Z,19.47
2018-02-16T21:58:30.070Z,27.27
2018-02-16T22:00:57.792Z,20.97
2018-02-16T22:03:25.436Z,20.40
2018-02-16T22:05:53.090Z,38.80
2018-02-16T22:08:20.731Z,28.97
2018-02-16T22:10:48.352Z,21.80
2018-02-16T22:13:15.963Z,24.83
2018-02-16T22:15:43.596Z,23.47
2018-02-16T22:18:11.405Z,18.50
2018-02-16T22:20:39.038Z,23.37
2018-02-16T22:23:06.766Z,17.50
2018-02-16T22:25:34.466Z,15.67
2018-02-16T22:28:02.140Z,18.27
2018-02-16T22:30:29.797Z,16.40
2018-02-16T22:32:57.446Z,31.27
2018-02-16T22:35:25.115Z,53.13
2018-02-16T22:37:52.725Z,46.43
2018-02-16T22:40:20.535Z,47.87
2018-02-16T22:42:52.193Z,22.83
2018-02-16T22:45:20.184Z,23.67
2018-02-16T22:47:47.832Z,23.60
2018-02-16T22:50:17.282Z,19.50
2018-02-16T22:52:45.097Z,23.00
2018-02-16T22:55:13.531Z,20.80
2018-02-16T22:57:41.151Z,14.93
2018-02-16T23:00:08.839Z,22.47
2018-02-16T23:02:36.441Z,18.93
2018-02-16T23:05:05.138Z,22.13
2018-02-16T23:07:32.973Z,18.73
2018-02-16T23:10:00.925Z,19.10
2018-02-16T23:12:28.814Z,21.70
2018-02-16T23:14:57.165Z,18.67
2018-02-16T23:17:24.802Z,16.50
2018-02-16T23:19:52.416Z,19.73
2018-02-16T23:22:20.079Z,22.10
2018-02-16T23:24:47.666Z,23.17
2018-02-16T23:27:16.686Z,25.33
2018-02-16T23:29:44.408Z,24.10
2018-02-16T23:32:12.176Z,52.27
2018-02-16T23:34:39.915Z,29.40
2018-02-16T23:37:08.053Z,26.23
2018-02-16T23:39:35.850Z,21.20
2018-02-16T23:42:03.720Z,32.70
2018-02-16T23:44:31.380Z,29.97
2018-02-16T23:47:04.829Z,37.77
2018-02-16T23:49:32.429Z,58.50
2018-02-16T23:52:00.142Z,41.83
2018-02-16T23:54:30.029Z,29.30
2018-02-16T23:56:58.114Z,60.20
2018-02-16T23:59:25.782Z,76.13
